Time;durP1;ratioP1;P1;durP2;ratioP2;P2;SDS_P1;SDS_P2;PMS_P1;PMS_P2;Temp;Humidity;BMP_temperature;BMP_pressure;BME280_temperature;BME280_humidity;BME280_pressure;Samples;Min_cycle;Max_cycle;Signal;HPM_P1;HPM_P2
2023/03/07 00:03:51;;;;;;;9.07;5.05;;;;;;;6.06;98.15;99035.31;8310304;28;20049;-52
2023/03/07 00:07:51;;;;;;;9.07;5.78;;;;;;;6.08;97.82;99033.34;8294168;28;20084;-54
2023/03/07 00:11:52;;;;;;;7.32;5.00;;;;;;;6.07;98.16;99040.53;8293961;28;20092;-52
2023/03/07 00:15:52;;;;;;;9.23;5.70;;;;;;;6.08;97.45;99039.53;8295165;28;20415;-50
2023/03/07 00:19:53;;;;;;;7.85;5.32;;;;;;;6.05;98.04;99028.28;8294896;28;20401;-52
2023/03/07 00:23:53;;;;;;;8.07;4.90;;;;;;;6.05;97.80;99030.94;8294418;28;20188;-51
2023/03/07 00:27:53;;;;;;;8.23;4.68;;;;;;;6.08;97.39;99025.28;8293782;28;20050;-52
2023/03/07 00:31:54;;;;;;;7.65;4.75;;;;;;;6.08;97.28;99023.44;8295392;28;20407;-51
2023/03/07 00:36:01;;;;;;;6.85;4.60;;;;;;;6.08;96.86;99011.88;8294431;28;20381;-58
2023/03/07 00:40:01;;;;;;;7.32;4.65;;;;;;;6.08;96.93;99010.03;8292496;28;20084;-61
2023/03/07 00:44:02;;;;;;;6.78;4.20;;;;;;;6.08;96.54;99015.38;8307180;28;20062;-58
2023/03/07 00:48:02;;;;;;;5.70;4.20;;;;;;;6.11;96.54;99008.91;8291422;28;20042;-58
2023/03/07 00:52:03;;;;;;;6.53;4.55;;;;;;;6.04;97.15;99010.50;8291224;28;20042;-58
2023/03/07 00:56:11;;;;;;;6.38;3.75;;;;;;;6.08;96.83;99012.69;8293904;28;20555;-58
2023/03/07 01:00:12;;;;;;;6.70;4.63;;;;;;;6.03;97.47;99014.16;8293622;28;20034;-58
2023/03/07 01:04:13;;;;;;;6.72;4.30;;;;;;;6.01;98.07;99005.44;8309159;28;20087;-58
2023/03/07 01:08:15;;;;;;;8.20;4.68;;;;;;;5.96;98.34;99005.88;8293326;28;20038;-51
2023/03/07 01:12:16;;;;;;;6.75;4.70;;;;;;;5.97;98.44;98999.50;8292649;28;20030;-53
2023/03/07 01:20:31;;;;;;;6.25;4.07;;;;;;;5.98;98.85;99000.38;8352351;27;20471;-51
2023/03/07 01:24:32;;;;;;;6.55;4.30;;;;;;;5.91;100.00;98989.38;8335466;28;20045;-53
2023/03/07 01:28:32;;;;;;;7.32;4.68;;;;;;;5.87;100.00;98985.31;8319874;28;20120;-53
2023/03/07 01:32:33;;;;;;;7.43;4.60;;;;;;;5.85;100.00;98979.25;8329412;28;20499;-54
2023/03/07 01:36:34;;;;;;;7.97;5.05;;;;;;;5.84;100.00;98976.72;8351232;28;20037;-52
2023/03/07 01:40:38;;;;;;;7.68;5.20;;;;;;;5.80;100.00;98981.47;8352933;28;20037;-54
2023/03/07 01:45:01;;;;;;;6.75;4.63;;;;;;;5.86;100.00;98977.41;8353282;28;20506;-52
2023/03/07 01:49:16;;;;;;;7.25;5.07;;;;;;;5.81;100.00;98976.97;8352493;28;20041;-54
2023/03/07 01:53:18;;;;;;;10.75;5.97;;;;;;;5.79;100.00;98971.75;8353128;28;20033;-53
2023/03/07 01:57:22;;;;;;;8.80;5.78;;;;;;;5.78;100.00;98972.75;8353110;28;20088;-53
2023/03/07 02:01:24;;;;;;;10.35;6.20;;;;;;;5.82;100.00;98957.22;8352420;28;20037;-53
2023/03/07 02:05:31;;;;;;;9.82;6.68;;;;;;;5.80;100.00;98959.19;8352512;28;20067;-54
2023/03/07 02:09:34;;;;;;;9.85;6.35;;;;;;;5.84;100.00;98955.25;8351449;28;20099;-54
2023/03/07 02:13:35;;;;;;;9.90;6.57;;;;;;;5.85;100.00;98946.22;8351566;28;20441;-54
2023/03/07 02:17:36;;;;;;;11.00;7.03;;;;;;;5.88;100.00;98937.88;8352071;28;20116;-54
2023/03/07 02:21:44;;;;;;;12.77;7.28;;;;;;;5.88;100.00;98935.19;8351895;28;20422;-60
2023/03/07 02:25:58;;;;;;;12.30;8.48;;;;;;;5.95;100.00;98926.38;8352182;28;20048;-59
2023/03/07 02:29:59;;;;;;;11.57;7.43;;;;;;;6.03;99.77;98939.03;8340133;28;20037;-60
2023/03/07 02:34:00;;;;;;;14.77;7.75;;;;;;;6.00;100.00;98934.84;8329456;28;20115;-60
2023/03/07 02:38:03;;;;;;;12.32;7.72;;;;;;;5.99;100.00;98932.31;8330135;28;20071;-60
2023/03/07 02:42:09;;;;;;;10.48;6.57;;;;;;;5.98;100.00;98914.53;8328053;28;20085;-60
2023/03/07 02:46:19;;;;;;;;;;;;;;;6.00;100.00;98916.06;8328597;28;20060;-59
2023/03/07 02:50:19;;;;;;;11.25;6.95;;;;;;;6.00;100.00;98915.22;8329051;28;19923;-60
2023/03/07 02:54:25;;;;;;;9.55;6.60;;;;;;;6.00;100.00;98915.22;8328509;28;20034;-60
2023/03/07 02:58:26;;;;;;;11.07;7.28;;;;;;;6.00;100.00;98909.84;8329334;28;20468;-60
2023/03/07 03:02:26;;;;;;;10.25;6.85;;;;;;;5.98;100.00;98906.50;8328461;28;20075;-59
2023/03/07 03:06:27;;;;;;;14.27;7.38;;;;;;;5.99;99.46;98910.84;8329412;28;20037;-60
2023/03/07 03:10:27;;;;;;;11.88;7.25;;;;;;;5.94;100.00;98913.13;8329060;28;20095;-59
2023/03/07 03:14:29;;;;;;;13.00;7.97;;;;;;;5.92;100.00;98896.38;8328698;28;20033;-54
2023/03/07 03:18:30;;;;;;;9.45;6.65;;;;;;;5.88;100.00;98895.81;8328365;28;20056;-60
2023/03/07 03:22:32;;;;;;;12.77;8.02;;;;;;;5.87;100.00;98890.59;8328080;28;20503;-61
2023/03/07 03:26:34;;;;;;;12.27;7.20;;;;;;;5.90;100.00;98890.31;8328846;28;20410;-60
2023/03/07 03:30:35;;;;;;;11.23;7.05;;;;;;;5.92;100.00;98888.31;8327392;28;20063;-60
2023/03/07 03:34:37;;;;;;;12.95;8.10;;;;;;;5.90;100.00;98879.56;8328552;28;20037;-60
2023/03/07 03:38:38;;;;;;;11.80;7.22;;;;;;;5.87;100.00;98879.88;8328258;28;20033;-54
2023/03/07 03:42:43;;;;;;;12.38;7.47;;;;;;;5.87;100.00;98879.88;8326367;28;20051;-55
2023/03/07 03:46:43;;;;;;;11.23;7.10;;;;;;;5.88;100.00;98876.19;8327595;28;20049;-60
2023/03/07 03:50:44;;;;;;;11.13;7.20;;;;;;;5.86;100.00;98870.97;8327138;28;20042;-60
2023/03/07 03:54:45;;;;;;;12.77;7.18;;;;;;;5.88;100.00;98869.00;8328034;28;20045;-60
2023/03/07 03:58:47;;;;;;;11.88;7.00;;;;;;;5.92;100.00;98866.88;8327512;28;20045;-58
2023/03/07 04:02:48;;;;;;;13.23;7.75;;;;;;;5.92;100.00;98866.88;8326551;28;20129;-60
2023/03/07 04:06:51;;;;;;;12.45;8.02;;;;;;;5.93;99.83;98863.19;8327654;28;20064;-61
2023/03/07 04:10:52;;;;;;;13.57;7.50;;;;;;;5.96;100.00;98862.88;8326535;28;20041;-54
2023/03/07 04:14:52;;;;;;;15.98;8.55;;;;;;;5.99;99.97;98841.97;8326971;28;20060;-54
2023/03/07 04:18:53;;;;;;;13.95;9.02;;;;;;;6.03;100.00;98844.34;8326891;28;20518;-52
2023/03/07 04:22:54;;;;;;;15.43;8.45;;;;;;;6.00;99.79;98834.75;8326559;28;20042;-60
2023/03/07 04:26:54;;;;;;;15.63;8.10;;;;;;;5.98;100.00;98836.78;8325410;28;20038;-59
2023/03/07 04:30:55;;;;;;;13.23;8.60;;;;;;;5.98;100.00;98831.41;8326359;28;20165;-60
2023/03/07 04:34:57;;;;;;;15.68;8.90;;;;;;;5.90;100.00;98815.22;8326459;28;20521;-60
2023/03/07 04:38:57;;;;;;;14.68;8.65;;;;;;;5.90;100.00;98807.19;8326717;28;20511;-60
2023/03/07 04:42:58;;;;;;;15.95;9.45;;;;;;;5.92;100.00;98807.88;8325831;28;20455;-60
2023/03/07 04:46:59;;;;;;;17.58;9.00;;;;;;;5.88;100.00;98807.34;8324365;28;20033;-60
2023/03/07 04:51:00;;;;;;;18.75;10.20;;;;;;;5.87;100.00;98810.16;8325321;28;20053;-60
2023/03/07 04:55:00;;;;;;;21.20;10.70;;;;;;;5.86;100.00;98805.81;8325090;28;20072;-60
2023/03/07 04:59:01;;;;;;;19.65;10.50;;;;;;;5.84;100.00;98794.38;8324695;28;20086;-60
2023/03/07 05:03:02;;;;;;;16.77;9.90;;;;;;;5.80;100.00;98787.63;8323314;28;20431;-60
2023/03/07 05:07:04;;;;;;;19.80;10.55;;;;;;;5.81;100.00;98794.66;8306946;28;20040;-54
2023/03/07 05:11:05;;;;;;;18.20;9.48;;;;;;;5.82;100.00;98791.84;8346037;28;20064;-54
2023/03/07 05:15:06;;;;;;;21.33;10.88;;;;;;;5.78;100.00;98785.09;8326219;28;20038;-60
2023/03/07 05:19:08;;;;;;;17.42;10.50;;;;;;;5.79;100.00;98791.28;8310354;28;20087;-60
2023/03/07 05:23:08;;;;;;;20.33;10.18;;;;;;;5.78;100.00;98785.09;8316541;28;20041;-60
2023/03/07 05:27:09;;;;;;;18.40;10.50;;;;;;;5.76;100.00;98781.72;8311027;28;20041;-60
2023/03/07 05:31:11;;;;;;;18.02;9.60;;;;;;;5.77;100.00;98777.19;8328275;28;20041;-59
2023/03/07 05:35:12;;;;;;;16.20;10.13;;;;;;;5.76;100.00;98775.50;8315957;28;20033;-59
2023/03/07 05:39:15;;;;;;;19.23;10.55;;;;;;;5.79;100.00;98777.88;8353575;28;20554;-60
2023/03/07 05:43:16;;;;;;;18.05;9.85;;;;;;;5.78;100.00;98773.50;8312441;28;20064;-59
2023/03/07 05:47:17;;;;;;;18.73;10.30;;;;;;;5.81;100.00;98779.47;8321526;28;20116;-59
2023/03/07 05:51:18;;;;;;;20.98;10.90;;;;;;;5.87;100.00;98775.31;8314259;28;20043;-60
2023/03/07 05:55:18;;;;;;;18.95;9.57;;;;;;;5.91;100.00;98777.53;8312769;28;20038;-60
2023/03/07 05:59:19;;;;;;;18.23;9.95;;;;;;;5.94;100.00;98779.06;8308712;28;20330;-59
2023/03/07 06:03:22;;;;;;;18.25;9.40;;;;;;;5.94;100.00;98779.06;8298645;28;20050;-60
2023/03/07 06:07:23;;;;;;;17.50;8.93;;;;;;;5.97;100.00;98773.38;8318666;28;20076;-59
2023/03/07 06:11:23;;;;;;;15.93;9.20;;;;;;;5.95;100.00;98772.72;8323151;28;20242;-60
2023/03/07 06:15:24;;;;;;;18.02;10.15;;;;;;;5.93;100.00;98767.50;8325028;28;20354;-60
2023/03/07 06:19:31;;;;;;;22.88;9.90;;;;;;;5.96;100.00;98769.03;8292435;28;20133;-60
2023/03/07 06:23:35;;;;;;;17.77;9.50;;;;;;;5.99;100.00;98768.72;8302491;28;20042;-60
2023/03/07 06:27:38;;;;;;;19.40;10.75;;;;;;;5.98;100.00;98759.00;8325735;28;20040;-60
2023/03/07 06:31:38;;;;;;;16.20;9.98;;;;;;;6.02;100.00;98755.00;8325660;28;20037;-60
2023/03/07 06:35:40;;;;;;;21.80;10.07;;;;;;;6.10;100.00;98760.41;8313445;28;20041;-60
2023/03/07 06:39:41;;;;;;;16.55;8.57;;;;;;;6.19;100.00;98767.53;8311628;28;20548;-55
2023/03/07 06:43:42;;;;;;;14.70;8.35;;;;;;;6.28;100.00;98761.22;8317236;28;20104;-53
2023/03/07 06:47:43;;;;;;;15.40;9.38;;;;;;;6.25;99.92;98745.44;8321418;28;20099;-53
2023/03/07 06:51:44;;;;;;;18.75;9.25;;;;;;;6.39;99.25;98752.94;8324245;28;20053;-54
2023/03/07 06:55:48;;;;;;;17.52;8.63;;;;;;;6.44;98.92;98750.63;8324269;28;20057;-53
2023/03/07 06:59:48;;;;;;;14.63;8.33;;;;;;;6.50;98.57;98754.50;8322632;28;20147;-54
2023/03/07 07:03:49;;;;;;;14.88;8.60;;;;;;;6.54;98.07;98745.97;8323820;28;20041;-54
2023/03/07 07:07:50;;;;;;;16.85;8.35;;;;;;;6.62;96.60;98764.81;8298590;28;20038;-53
2023/03/07 07:11:51;;;;;;;17.08;8.27;;;;;;;6.63;96.53;98758.47;8304410;28;20042;-53
2023/03/07 07:15:51;;;;;;;15.20;8.27;;;;;;;6.64;96.42;98757.44;8323707;28;20041;-53
2023/03/07 07:19:52;;;;;;;14.43;7.53;;;;;;;6.67;95.73;98759.81;8321949;28;20042;-53
2023/03/07 07:23:55;;;;;;;13.52;8.07;;;;;;;6.65;95.72;98748.38;8314130;28;20053;-54
2023/03/07 07:27:56;;;;;;;12.98;7.68;;;;;;;6.70;95.45;98745.22;8321998;28;20046;-53
2023/03/07 07:31:56;;;;;;;11.93;7.18;;;;;;;6.77;94.76;98747.09;8306219;28;20124;-54
2023/03/07 07:35:57;;;;;;;11.95;7.07;;;;;;;6.80;94.50;98744.09;8291285;28;20068;-53
2023/03/07 07:39:58;;;;;;;14.85;6.82;;;;;;;6.83;94.16;98751.84;8292552;28;20046;-54
2023/03/07 07:43:59;;;;;;;14.35;7.20;;;;;;;6.82;94.07;98755.53;8305106;28;20558;-53
2023/03/07 07:48:06;;;;;;;12.18;7.07;;;;;;;6.77;94.12;98757.84;8303290;28;20057;-54
2023/03/07 07:52:06;;;;;;;11.77;7.18;;;;;;;6.78;94.64;98764.91;8315746;28;20029;-54
2023/03/07 07:56:07;;;;;;;11.77;7.22;;;;;;;6.80;94.78;98752.16;8292066;28;20040;-53
2023/03/07 08:00:10;;;;;;;10.93;6.68;;;;;;;6.85;94.65;98759.72;8307761;28;20037;-54
2023/03/07 08:04:14;;;;;;;12.45;6.45;;;;;;;6.90;94.25;98762.78;8333809;28;20041;-53
2023/03/07 08:08:16;;;;;;;8.68;5.75;;;;;;;6.90;93.43;98760.97;8291918;28;20045;-51
2023/03/07 08:12:16;;;;;;;7.53;5.38;;;;;;;6.91;93.08;98759.94;8287890;28;20176;-54
2023/03/07 08:16:21;;;;;;;11.25;5.72;;;;;;;6.92;93.45;98772.34;8288985;28;20487;-54
2023/03/07 08:20:24;;;;;;;8.02;5.40;;;;;;;6.86;92.63;98773.00;8290507;28;20057;-53
2023/03/07 08:24:24;;;;;;;8.88;5.43;;;;;;;6.87;93.79;98765.78;8290733;28;20451;-53
2023/03/07 08:28:25;;;;;;;9.55;5.88;;;;;;;6.95;92.59;98761.28;8290587;28;20068;-53
2023/03/07 08:32:26;;;;;;;7.68;5.00;;;;;;;7.06;91.82;98763.72;8290663;28;20462;-54
2023/03/07 08:36:27;;;;;;;8.82;5.70;;;;;;;7.12;90.58;98746.94;8290296;28;20116;-49
2023/03/07 08:40:29;;;;;;;9.73;5.50;;;;;;;7.17;90.82;98763.41;8289835;28;20088;-53
2023/03/07 08:44:29;;;;;;;11.90;5.10;;;;;;;7.22;90.34;98763.78;8311543;28;20248;-53
2023/03/07 08:48:30;;;;;;;8.48;5.72;;;;;;;7.26;90.84;98764.28;8322750;28;20041;-53
2023/03/07 08:52:31;;;;;;;8.02;5.53;;;;;;;7.32;90.96;98763.66;8322889;28;20602;-54
2023/03/07 08:56:32;;;;;;;9.20;6.30;;;;;;;7.35;91.06;98758.75;8323052;28;20411;-54
2023/03/07 09:00:32;;;;;;;10.80;5.35;;;;;;;7.39;90.45;98768.22;8322334;28;20514;-53
2023/03/07 09:04:33;;;;;;;11.30;7.25;;;;;;;7.35;90.21;98764.16;8319942;28;20049;-54
2023/03/07 09:08:33;;;;;;;13.00;6.60;;;;;;;7.48;91.56;98756.44;8290205;28;20547;-60
2023/03/07 09:12:34;;;;;;;10.98;6.65;;;;;;;7.61;89.65;98754.16;8293108;28;20037;-60
2023/03/07 09:16:35;;;;;;;13.88;6.38;;;;;;;7.53;89.82;98762.19;8322021;28;20037;-60
2023/03/07 09:20:37;;;;;;;11.60;7.18;;;;;;;7.42;90.86;98764.34;8336945;28;20044;-60
2023/03/07 09:24:37;;;;;;;16.05;7.97;;;;;;;7.43;91.83;98772.25;8322083;28;20384;-60
2023/03/07 09:28:38;;;;;;;13.88;7.80;;;;;;;7.57;91.58;98758.16;8322863;28;20041;-60
2023/03/07 09:32:38;;;;;;;18.85;8.52;;;;;;;7.65;91.70;98760.88;8321134;28;20063;-60
2023/03/07 09:36:39;;;;;;;12.52;7.82;;;;;;;7.78;92.26;98750.47;8318320;28;20463;-60
2023/03/07 09:40:39;;;;;;;14.80;7.38;;;;;;;8.02;90.76;98758.56;8322506;28;20038;-60
2023/03/07 09:45:08;;;;;;;13.75;8.02;;;;;;;7.86;91.28;98757.69;8328983;28;20045;-60
2023/03/07 09:49:39;;;;;;;12.90;8.00;;;;;;;7.83;91.72;98761.56;8320331;28;20167;-59
2023/03/07 09:53:50;;;;;;;12.25;7.68;;;;;;;7.84;93.70;98751.66;8327986;28;20033;-60
2023/03/07 09:57:55;;;;;;;12.07;7.68;;;;;;;7.83;94.01;98747.28;8327547;28;20438;-59
2023/03/07 10:02:22;;;;;;;12.07;7.25;;;;;;;7.80;92.32;98740.38;8326153;28;20045;-58
2023/03/07 10:06:32;;;;;;;10.43;6.40;;;;;;;7.80;94.22;98742.22;8321231;28;20041;-58
2023/03/07 10:10:38;;;;;;;9.52;5.68;;;;;;;7.73;94.31;98742.06;8339158;28;20447;-59
2023/03/07 10:15:02;;;;;;;7.68;5.72;;;;;;;7.72;93.37;98740.38;8337073;28;20546;-58
2023/03/07 10:19:16;;;;;;;10.98;5.80;;;;;;;7.63;94.20;98735.97;8327988;28;20038;-59
2023/03/07 10:23:34;;;;;;;9.23;5.60;;;;;;;7.64;96.22;98740.38;8329176;28;20080;-58
2023/03/07 10:27:34;;;;;;;12.68;5.95;;;;;;;7.63;96.05;98746.72;8327705;28;20125;-59
2023/03/07 10:31:39;;;;;;;8.35;5.40;;;;;;;7.64;95.99;98737.69;8326128;28;20041;-59
2023/03/07 10:35:42;;;;;;;9.70;6.03;;;;;;;7.95;94.23;98722.56;8303029;28;20088;-59
2023/03/07 10:39:51;;;;;;;11.80;6.55;;;;;;;8.18;92.22;98724.59;8302253;28;20061;-58
2023/03/07 10:43:53;;;;;;;11.20;6.03;;;;;;;8.12;90.89;98719.88;8310974;28;20526;-59
2023/03/07 10:47:53;;;;;;;11.23;6.63;;;;;;;7.97;91.86;98712.47;8326377;28;20048;-58
2023/03/07 10:52:33;;;;;;;13.48;6.72;;;;;;;7.95;94.10;98714.50;8326202;28;20048;-58
2023/03/07 10:56:34;;;;;;;13.65;7.07;;;;;;;7.84;93.59;98712.13;8326388;28;20061;-61
2023/03/07 11:00:34;;;;;;;11.32;6.95;;;;;;;7.90;94.17;98708.78;8325295;28;20041;-54
2023/03/07 11:04:45;;;;;;;15.70;7.43;;;;;;;7.86;92.88;98710.13;8318266;28;20639;-54
2023/03/07 11:08:46;;;;;;;13.75;7.22;;;;;;;7.80;91.54;98709.94;8293415;28;20038;-54
2023/03/07 11:12:47;;;;;;;10.73;6.85;;;;;;;7.85;92.89;98708.47;8296847;28;20045;-53
2023/03/07 11:16:52;;;;;;;8.82;6.30;;;;;;;7.80;93.10;98710.81;8325657;28;20103;-54
2023/03/07 11:20:52;;;;;;;12.07;6.82;;;;;;;7.94;93.69;98712.81;8325168;28;20111;-54
2023/03/07 11:29:27;;;;;;;14.77;7.82;;;;;;;7.83;94.81;98710.47;8486470;27;20357;-50
2023/03/07 11:33:39;;;;;;;12.40;7.78;;;;;;;7.75;95.96;98707.75;8484008;27;20050;-51
2023/03/07 11:37:55;;;;;;;12.88;7.38;;;;;;;7.86;96.47;98702.06;8484759;27;20475;-52
2023/03/07 11:42:02;;;;;;;13.02;8.05;;;;;;;7.91;95.23;98701.56;8469319;27;20536;-58
2023/03/07 11:46:16;;;;;;;10.93;7.45;;;;;;;7.99;96.46;98693.47;8448504;27;20444;-52
2023/03/07 11:50:28;;;;;;;12.38;7.70;;;;;;;8.03;95.56;98687.56;8466943;27;20402;-53
2023/03/07 11:54:43;;;;;;;15.57;7.25;;;;;;;8.08;95.98;98690.63;8467476;27;20035;-52
2023/03/07 11:59:08;;;;;;;10.93;6.97;;;;;;;8.17;93.84;98680.66;8466303;27;20039;-53
2023/03/07 12:03:26;;;;;;;15.93;9.18;;;;;;;8.22;97.01;98685.53;8470834;27;20058;-54
2023/03/07 12:07:56;;;;;;;15.15;8.35;;;;;;;8.29;94.27;98683.91;8452118;27;20039;-60
2023/03/07 12:16:30;;;;;;;13.45;7.88;;;;;;;8.56;92.57;98675.41;8353087;27;20497;-57
2023/03/07 12:25:06;;;;;;;15.18;8.93;;;;;;;8.40;92.42;98670.91;8360531;27;20939;-50
2023/03/07 12:29:23;;;;;;;15.13;9.30;;;;;;;8.30;93.46;98674.81;8332840;28;20124;-52
2023/03/07 12:38:10;;;;;;;20.75;9.98;;;;;;;7.99;97.75;98671.94;8403592;27;20496;-61
2023/03/07 12:46:53;;;;;;;18.63;10.55;;;;;;;7.71;99.61;98673.31;8316709;28;20446;-58
2023/03/07 12:51:21;;;;;;;21.92;11.10;;;;;;;7.56;100.00;98670.44;8313530;28;20052;-58
2023/03/07 12:55:30;;;;;;;24.88;12.05;;;;;;;7.46;100.00;98677.84;8315004;28;20507;-59
2023/03/07 12:59:35;;;;;;;24.33;12.63;;;;;;;7.25;100.00;98669.38;8306566;28;20049;-58
2023/03/07 13:04:05;;;;;;;10.98;6.65;;;;;;;6.48;100.00;98666.09;8297012;28;20042;-60
2023/03/07 13:08:07;;;;;;;10.90;6.70;;;;;;;6.03;100.00;98684.25;8315158;28;20048;-60
2023/03/07 13:16:40;;;;;;;9.43;5.45;;;;;;;5.31;100.00;98673.72;8346092;27;20502;-58
2023/03/07 13:20:42;;;;;;;8.02;5.20;;;;;;;5.13;100.00;98685.44;8363395;28;20424;-59
2023/03/07 13:24:44;;;;;;;9.07;5.13;;;;;;;5.08;100.00;98677.00;8359066;28;20044;-58
2023/03/07 13:28:48;;;;;;;8.57;5.18;;;;;;;4.97;100.00;98679.91;8345348;28;20044;-58
2023/03/07 13:37:42;;;;;;;6.53;4.70;;;;;;;4.78;100.00;98686.22;8349417;27;20410;-60
2023/03/07 13:41:48;;;;;;;7.53;5.10;;;;;;;4.64;100.00;98693.91;8349905;28;20037;-60
2023/03/07 13:50:43;;;;;;;5.53;3.88;;;;;;;4.59;100.00;98702.38;8347372;27;21205;-59
2023/03/07 13:54:47;;;;;;;8.15;4.30;;;;;;;4.53;100.00;98707.44;8348886;28;20037;-59
2023/03/07 13:58:56;;;;;;;5.93;4.05;;;;;;;4.54;100.00;98709.16;8321123;28;20037;-59
2023/03/07 14:02:57;;;;;;;7.60;4.07;;;;;;;4.44;100.00;98716.34;8315150;28;20040;-59
2023/03/07 14:07:03;;;;;;;6.00;3.67;;;;;;;4.40;100.00;98723.84;8316692;28;20531;-59
2023/03/07 14:11:11;;;;;;;3.42;2.63;;;;;;;4.24;100.00;98726.28;8317345;28;20503;-59
2023/03/07 14:15:31;;;;;;;4.22;2.60;;;;;;;4.14;100.00;98725.47;8317787;28;20132;-58
2023/03/07 14:20:11;;;;;;;3.05;2.45;;;;;;;4.18;100.00;98718.00;8308099;28;20050;-59
2023/03/07 14:24:51;;;;;;;3.45;2.28;;;;;;;4.14;100.00;98727.31;8311656;28;20038;-58
2023/03/07 14:29:21;;;;;;;3.22;2.05;;;;;;;4.05;100.00;98734.34;8317061;28;20053;-58
2023/03/07 14:33:30;;;;;;;3.03;2.47;;;;;;;3.97;100.00;98745.75;8316710;28;20065;-59
2023/03/07 14:37:31;;;;;;;3.60;2.00;;;;;;;3.77;100.00;98752.09;8316493;28;24501;-59
2023/03/07 14:41:59;;;;;;;4.88;3.58;;;;;;;3.71;100.00;98755.34;8324975;28;20503;-59
2023/03/07 14:50:19;;;;;;;29.80;16.98;;;;;;;3.53;100.00;98753.50;8354292;27;20362;-61
2023/03/07 14:54:24;;;;;;;15.23;9.40;;;;;;;3.41;100.00;98760.81;8350615;28;20047;-59
2023/03/07 14:58:28;;;;;;;2.80;2.20;;;;;;;3.20;100.00;98767.25;8349814;28;20056;-60
2023/03/07 15:02:28;;;;;;;4.57;2.38;;;;;;;3.15;100.00;98764.13;8374833;28;20037;-60
2023/03/07 15:06:29;;;;;;;2.70;2.10;;;;;;;3.04;100.00;98773.09;8326674;28;20041;-60
2023/03/07 15:10:40;;;;;;;2.80;2.03;;;;;;;2.99;100.00;98769.97;8333740;28;20053;-61
2023/03/07 15:14:50;;;;;;;3.13;1.90;;;;;;;3.01;100.00;98778.72;8360773;28;20501;-61
2023/03/07 15:18:55;;;;;;;5.32;2.40;;;;;;;2.88;100.00;98778.13;8340672;28;20092;-61
2023/03/07 15:23:01;;;;;;;5.40;2.50;;;;;;;2.88;100.00;98783.44;8336036;28;20579;-61
2023/03/07 15:27:04;;;;;;;4.93;3.42;;;;;;;2.87;100.00;98792.41;8343240;28;20037;-61
2023/03/07 15:31:07;;;;;;;4.68;3.50;;;;;;;2.87;100.00;98795.06;8325692;28;20048;-61
2023/03/07 15:39:33;;;;;;;12.52;5.25;;;;;;;2.83;100.00;98801.69;8370756;27;20424;-59
2023/03/07 15:43:34;;;;;;;16.10;8.77;;;;;;;2.88;100.00;98804.78;8357136;28;20042;-60
2023/03/07 15:47:34;;;;;;;12.38;6.70;;;;;;;2.89;100.00;98803.81;8359903;28;20120;-59
2023/03/07 15:51:36;;;;;;;14.10;6.65;;;;;;;2.96;100.00;98804.94;8361968;28;20049;-60
2023/03/07 15:55:38;;;;;;;8.90;5.18;;;;;;;2.92;100.00;98803.53;8380527;28;20041;-59
2023/03/07 15:59:46;;;;;;;12.55;6.50;;;;;;;2.87;100.00;98797.75;8358155;28;20056;-60
2023/03/07 16:03:55;;;;;;;15.50;7.22;;;;;;;2.83;100.00;98796.34;8363117;28;20430;-60
2023/03/07 16:07:56;;;;;;;8.05;5.20;;;;;;;2.82;100.00;98807.16;8379177;28;20689;-61
2023/03/07 16:11:57;;;;;;;9.80;5.78;;;;;;;2.82;100.00;98812.47;8377856;28;20048;-61
2023/03/07 16:16:02;;;;;;;12.98;6.25;;;;;;;2.85;100.00;98814.88;8378953;28;20033;-61
2023/03/07 16:20:12;;;;;;;12.35;6.43;;;;;;;2.86;100.00;98828.09;8361122;28;20365;-61
2023/03/07 16:24:12;;;;;;;12.93;5.93;;;;;;;2.89;100.00;98827.81;8372709;28;20062;-60
2023/03/07 16:28:13;;;;;;;11.05;6.90;;;;;;;2.87;100.00;98829.75;8358751;28;20494;-60
2023/03/07 16:32:17;;;;;;;12.25;7.03;;;;;;;2.91;100.00;98827.69;8369334;28;20311;-59
2023/03/07 16:36:17;;;;;;;18.23;10.47;;;;;;;2.79;100.00;98834.94;8366184;28;20099;-59
2023/03/07 16:40:21;;;;;;;17.00;10.52;;;;;;;2.75;100.00;98830.88;8376736;28;20303;-60
2023/03/07 16:44:22;;;;;;;18.85;10.70;;;;;;;2.80;100.00;98831.28;8372330;28;20437;-61
2023/03/07 16:48:23;;;;;;;52.03;27.45;;;;;;;2.76;100.00;98840.53;8365157;28;20187;-60
2023/03/07 16:52:24;;;;;;;60.97;32.80;;;;;;;2.77;100.00;98850.22;8331615;28;20112;-61
2023/03/07 16:56:31;;;;;;;31.48;17.90;;;;;;;2.71;100.00;98845.44;8323592;28;20132;-61
2023/03/07 17:00:31;;;;;;;20.80;12.38;;;;;;;2.79;100.00;98842.94;8348002;28;20049;-61
2023/03/07 17:04:32;;;;;;;18.08;10.73;;;;;;;2.81;100.00;98850.81;8350546;28;20328;-60
2023/03/07 17:08:32;;;;;;;22.60;12.25;;;;;;;2.83;100.00;98849.69;8354555;28;20124;-61
2023/03/07 17:12:33;;;;;;;23.40;12.25;;;;;;;2.82;100.00;98852.50;8344827;28;20048;-60
2023/03/07 17:16:38;;;;;;;22.02;12.13;;;;;;;2.82;100.00;98857.84;8330637;28;20146;-61
2023/03/07 17:20:39;;;;;;;22.88;12.00;;;;;;;2.79;100.00;98861.63;8339236;28;20042;-61
2023/03/07 17:24:40;;;;;;;24.05;11.88;;;;;;;2.85;100.00;98871.75;8332289;28;20064;-61
2023/03/07 17:28:40;;;;;;;28.17;14.05;;;;;;;2.86;100.00;98878.78;8345628;28;20051;-61
2023/03/07 17:32:41;;;;;;;26.65;13.02;;;;;;;2.86;100.00;98880.59;8347551;28;20037;-57
2023/03/07 17:36:41;;;;;;;34.13;15.48;;;;;;;2.94;100.00;98889.66;8349279;28;20048;-54
2023/03/07 17:40:43;;;;;;;33.13;16.67;;;;;;;2.98;100.00;98891.06;8343725;28;20052;-60
2023/03/07 17:44:43;;;;;;;33.65;15.73;;;;;;;3.00;100.00;98891.78;8344180;28;20041;-60
2023/03/07 17:48:43;;;;;;;33.13;16.02;;;;;;;3.05;100.00;98900.22;8323806;28;20072;-53
2023/03/07 17:52:44;;;;;;;33.95;16.30;;;;;;;3.00;100.00;98905.13;8332166;28;20056;-53
2023/03/07 17:56:44;;;;;;;33.90;16.77;;;;;;;3.02;100.00;98908.50;8330970;28;20044;-59
2023/03/07 18:00:45;;;;;;;38.53;18.35;;;;;;;3.03;100.00;98915.53;8343323;28;20045;-58
2023/03/07 18:04:46;;;;;;;36.30;17.65;;;;;;;3.03;100.00;98925.38;8349849;28;20510;-58
2023/03/07 18:08:46;;;;;;;37.67;17.98;;;;;;;3.02;100.00;98924.50;8333012;28;20134;-57
2023/03/07 18:12:49;;;;;;;28.05;14.80;;;;;;;2.95;100.00;98938.50;8327194;28;20526;-57
2023/03/07 18:16:49;;;;;;;34.95;17.15;;;;;;;2.84;100.00;98947.44;8330286;28;20418;-61
2023/03/07 18:21:12;;;;;;;34.08;14.77;;;;;;;2.81;100.00;98969.03;8346856;28;20040;-58
2023/03/07 18:25:14;;;;;;;37.25;18.45;;;;;;;2.77;100.00;98962.28;8346914;28;20061;-58
2023/03/07 18:29:15;;;;;;;35.28;18.70;;;;;;;2.82;100.00;98965.41;8356064;28;20040;-58
2023/03/07 18:33:16;;;;;;;39.97;20.65;;;;;;;2.84;100.00;98952.75;8339550;28;20041;-58
2023/03/07 18:37:16;;;;;;;42.60;21.25;;;;;;;2.82;100.00;98957.41;8323362;28;20388;-58
2023/03/07 18:41:20;;;;;;;43.83;22.85;;;;;;;2.81;100.00;98958.38;8366096;28;20567;-58
2023/03/07 18:45:21;;;;;;;41.20;21.00;;;;;;;2.80;100.00;98956.69;8365969;28;20127;-59
2023/03/07 18:49:21;;;;;;;40.58;19.70;;;;;;;2.83;100.00;98956.41;8344078;28;20350;-58
2023/03/07 18:53:22;;;;;;;40.20;19.45;;;;;;;2.90;100.00;98960.25;8341045;28;20407;-58
2023/03/07 18:57:22;;;;;;;40.95;19.63;;;;;;;2.84;100.00;98974.13;8352705;28;20041;-60
2023/03/07 19:01:30;;;;;;;39.10;16.98;;;;;;;2.86;100.00;98974.84;8351661;28;20045;-61
2023/03/07 19:05:31;;;;;;;39.35;18.38;;;;;;;2.82;100.00;98985.91;8352571;28;20049;-60
2023/03/07 19:09:31;;;;;;;37.78;17.40;;;;;;;2.84;100.00;98984.78;8351393;28;20516;-60
2023/03/07 19:13:32;;;;;;;47.13;19.73;;;;;;;2.85;100.00;98999.84;8340687;28;20526;-61
2023/03/07 19:17:37;;;;;;;44.88;19.42;;;;;;;2.84;100.00;99000.78;8336636;28;20514;-60
2023/03/07 19:21:37;;;;;;;42.83;19.20;;;;;;;2.84;100.00;99019.47;8334268;28;20608;-61
2023/03/07 19:25:37;;;;;;;34.50;16.27;;;;;;;2.83;100.00;99017.78;8335139;28;20552;-54
2023/03/07 19:29:38;;;;;;;31.38;15.60;;;;;;;2.85;100.00;99026.53;8329067;28;20526;-54
2023/03/07 19:33:39;;;;;;;34.63;15.70;;;;;;;2.82;100.00;99028.59;8338387;28;20040;-54
2023/03/07 19:37:39;;;;;;;34.28;15.15;;;;;;;2.81;100.00;99049.06;8341676;28;20401;-54
2023/03/07 19:41:40;;;;;;;33.40;14.65;;;;;;;2.78;100.00;99049.38;8336166;28;20045;-53
2023/03/07 19:45:40;;;;;;;34.25;15.73;;;;;;;2.78;100.00;99070.72;8342114;28;20445;-53
2023/03/07 19:49:40;;;;;;;31.98;15.00;;;;;;;2.74;100.00;99073.75;8326477;28;20045;-53
2023/03/07 19:53:42;;;;;;;34.72;15.95;;;;;;;2.70;100.00;99077.63;8329099;28;20045;-54